createdAt,value
2022-12-23T00:01:04.765Z,13.90
2022-12-23T00:03:33.250Z,13.40
2022-12-23T00:06:00.735Z,13.38
2022-12-23T00:08:27.875Z,12.95
2022-12-23T00:10:56.771Z,13.80
2022-12-23T00:13:23.749Z,13.30
2022-12-23T00:15:50.411Z,13.02
2022-12-23T00:18:17.131Z,12.57
2022-12-23T00:20:45.105Z,13.80
2022-12-23T00:23:11.681Z,13.63
2022-12-23T00:25:42.402Z,11.90
2022-12-23T00:28:10.461Z,13.55
2022-12-23T00:30:37.719Z,12.98
2022-12-23T00:33:04.846Z,13.00
2022-12-23T00:35:31.897Z,13.05
2022-12-23T00:37:59.937Z,12.50
2022-12-23T00:40:26.672Z,12.52
2022-12-23T00:42:53.230Z,12.93
2022-12-23T00:45:20.115Z,13.63
2022-12-23T00:47:48.038Z,14.10
2022-12-23T00:50:14.807Z,13.07
2022-12-23T00:52:41.459Z,12.73
2022-12-23T00:55:09.749Z,13.10
2022-12-23T00:57:36.391Z,12.02
2022-12-23T01:00:03.437Z,10.48
2022-12-23T01:02:30.186Z,11.85
2022-12-23T01:04:56.931Z,10.60
2022-12-23T01:07:24.445Z,11.90
2022-12-23T01:09:51.094Z,12.20
2022-12-23T01:12:19.117Z,11.48
2022-12-23T01:14:45.834Z,11.32
2022-12-23T01:17:12.581Z,11.18
2022-12-23T01:19:39.706Z,12.65
2022-12-23T01:22:06.362Z,11.30
2022-12-23T01:24:33.621Z,11.60
2022-12-23T01:27:00.605Z,11.02
2022-12-23T01:29:28.618Z,12.38
2022-12-23T01:31:55.469Z,12.10
2022-12-23T01:34:22.379Z,12.27
2022-12-23T01:36:49.136Z,12.88
2022-12-23T01:39:15.920Z,11.88
2022-12-23T01:41:42.627Z,11.40
2022-12-23T01:44:46.872Z,11.80
2022-12-23T01:47:19.901Z,12.57
2022-12-23T01:49:47.628Z,12.40
2022-12-23T01:52:15.014Z,12.55
2022-12-23T01:54:42.675Z,11.75
2022-12-23T01:57:09.296Z,11.75
2022-12-23T01:59:36.249Z,12.18
2022-12-23T02:02:02.946Z,12.00
2022-12-23T02:04:31.015Z,11.63
2022-12-23T02:06:57.691Z,12.65
2022-12-23T02:09:26.349Z,11.65
2022-12-23T02:12:22.546Z,12.27
2022-12-23T02:15:01.762Z,12.13
2022-12-23T02:17:33.610Z,12.63
2022-12-23T02:20:29.107Z,12.82
2022-12-23T02:23:25.898Z,11.52
2022-12-23T02:26:14.252Z,13.13
2022-12-23T02:29:05.105Z,12.85
2022-12-23T02:31:41.867Z,12.75
2022-12-23T02:34:16.457Z,13.38
2022-12-23T02:36:50.380Z,13.88
2022-12-23T02:39:27.043Z,14.30
2022-12-23T02:41:58.781Z,14.85
2022-12-23T02:44:32.567Z,15.00
2022-12-23T02:47:04.531Z,14.75
2022-12-23T02:49:34.953Z,14.35
2022-12-23T02:52:05.114Z,14.65
2022-12-23T02:54:36.859Z,13.90
2022-12-23T02:57:06.101Z,13.30
2022-12-23T02:59:36.577Z,13.73
2022-12-23T03:02:04.681Z,13.23
2022-12-23T03:04:31.493Z,13.05
2022-12-23T03:07:01.689Z,13.70
2022-12-23T03:09:43.506Z,13.77
2022-12-23T03:12:19.509Z,13.02
2022-12-23T03:14:55.485Z,14.68
2022-12-23T03:17:35.708Z,13.90
2022-12-23T03:20:14.003Z,13.43
2022-12-23T03:22:50.839Z,13.82
2022-12-23T03:25:23.355Z,14.25
2022-12-23T03:27:55.421Z,14.47
2022-12-23T03:30:23.123Z,15.60
2022-12-23T03:32:55.311Z,14.98
2022-12-23T03:35:28.377Z,15.43
2022-12-23T03:37:57.715Z,14.55
2022-12-23T03:40:28.018Z,13.82
2022-12-23T03:43:00.847Z,13.82
2022-12-23T03:45:41.711Z,13.65
2022-12-23T03:48:19.343Z,13.45
2022-12-23T03:50:49.137Z,14.23
2022-12-23T03:53:22.348Z,14.85
2022-12-23T03:55:53.923Z,14.95
2022-12-23T03:58:33.928Z,15.27
2022-12-23T04:01:08.052Z,14.77
2022-12-23T04:03:41.923Z,15.77
2022-12-23T04:06:14.269Z,15.68
2022-12-23T04:08:43.495Z,14.38
2022-12-23T04:11:11.104Z,15.32
2022-12-23T04:13:37.968Z,15.35
2022-12-23T04:16:05.840Z,17.05
2022-12-23T04:18:32.638Z,16.00
2022-12-23T04:21:00.611Z,15.23
2022-12-23T04:23:27.444Z,14.98
2022-12-23T04:25:54.047Z,17.27
2022-12-23T04:28:20.770Z,15.13
2022-12-23T04:30:47.419Z,16.85
2022-12-23T04:33:14.038Z,16.77
2022-12-23T04:35:40.589Z,18.70
2022-12-23T04:38:08.942Z,17.63
2022-12-23T04:40:35.581Z,18.70
2022-12-23T04:43:02.178Z,18.40
2022-12-23T04:45:28.824Z,16.92
2022-12-23T04:47:55.496Z,16.25
2022-12-23T04:50:22.155Z,16.65
2022-12-23T04:52:48.787Z,17.85
2022-12-23T04:55:16.958Z,17.40
2022-12-23T04:57:43.624Z,17.75
2022-12-23T05:00:11.319Z,16.65
2022-12-23T05:02:38.087Z,17.40
2022-12-23T05:05:05.555Z,16.73
2022-12-23T05:07:32.191Z,18.00
2022-12-23T05:09:58.796Z,18.98
2022-12-23T05:12:26.986Z,21.00
2022-12-23T05:14:53.561Z,21.52
2022-12-23T05:17:20.183Z,20.38
2022-12-23T05:19:46.851Z,19.70
2022-12-23T05:22:13.483Z,18.63
2022-12-23T05:24:40.089Z,17.98
2022-12-23T05:27:06.720Z,19.08
2022-12-23T05:29:34.711Z,18.67
2022-12-23T05:32:01.336Z,21.33
2022-12-23T05:34:28.173Z,20.08
2022-12-23T05:36:54.719Z,19.02
2022-12-23T05:39:21.343Z,19.50
2022-12-23T05:41:47.950Z,18.95
2022-12-23T05:44:14.664Z,19.70
2022-12-23T05:46:42.726Z,16.25
2022-12-23T05:49:09.618Z,17.13
2022-12-23T05:51:36.219Z,17.77
2022-12-23T05:54:02.905Z,17.90
2022-12-23T05:56:29.671Z,17.27
2022-12-23T05:58:56.300Z,17.77
2022-12-23T06:01:22.863Z,18.08
2022-12-23T06:03:50.894Z,18.77
2022-12-23T06:06:17.568Z,19.50
2022-12-23T06:08:44.121Z,18.75
2022-12-23T06:11:10.782Z,16.70
2022-12-23T06:13:37.391Z,17.23
2022-12-23T06:16:04.590Z,16.65
2022-12-23T06:18:31.207Z,17.55
2022-12-23T06:20:59.216Z,16.98
2022-12-23T06:23:26.077Z,15.45
2022-12-23T06:25:58.666Z,14.95
2022-12-23T06:28:25.276Z,15.17
2022-12-23T06:30:52.918Z,14.88
2022-12-23T06:33:19.544Z,14.05
2022-12-23T06:35:46.148Z,14.77
2022-12-23T06:38:14.362Z,14.35
2022-12-23T06:40:40.982Z,15.13
2022-12-23T06:43:07.647Z,14.07
2022-12-23T06:45:34.528Z,15.77
2022-12-23T06:48:01.166Z,13.82
2022-12-23T06:50:27.747Z,13.32
2022-12-23T06:52:54.407Z,13.50
2022-12-23T06:55:22.392Z,13.60
2022-12-23T06:57:49.111Z,13.40
2022-12-23T07:00:16.760Z,13.77
2022-12-23T07:02:43.406Z,14.20
2022-12-23T07:05:10.074Z,14.57
2022-12-23T07:07:36.775Z,14.25
2022-12-23T07:10:04.155Z,15.38
2022-12-23T07:12:32.193Z,14.35
2022-12-23T07:14:58.760Z,15.68
2022-12-23T07:17:25.390Z,16.20
2022-12-23T07:19:51.953Z,17.38
2022-12-23T07:22:18.563Z,20.95
2022-12-23T07:24:45.196Z,18.27
2022-12-23T07:27:11.829Z,20.08
2022-12-23T07:29:39.812Z,21.45
2022-12-23T07:32:06.566Z,17.00
2022-12-23T07:34:33.362Z,20.20
2022-12-23T07:37:00.246Z,23.63
2022-12-23T07:39:26.833Z,17.42
2022-12-23T07:42:16.482Z,17.08
2022-12-23T07:44:41.608Z,15.40
2022-12-23T07:47:08.231Z,19.45
2022-12-23T07:49:34.804Z,17.50
2022-12-23T07:52:01.494Z,17.65
2022-12-23T07:54:28.130Z,16.83
2022-12-23T07:56:54.750Z,16.05
2022-12-23T07:59:21.301Z,27.10
2022-12-23T08:01:49.446Z,51.55
2022-12-23T08:04:16.085Z,42.95
2022-12-23T08:06:42.750Z,48.15
2022-12-23T08:09:09.672Z,37.25
2022-12-23T08:11:36.280Z,34.95
2022-12-23T08:14:02.881Z,26.30
2022-12-23T08:16:29.510Z,19.20
2022-12-23T08:18:57.477Z,19.02
2022-12-23T08:21:24.523Z,19.20
2022-12-23T08:23:51.413Z,20.83
2022-12-23T08:26:20.466Z,19.33
2022-12-23T08:28:49.192Z,16.95
2022-12-23T08:31:18.240Z,17.17
2022-12-23T08:33:47.880Z,15.32
2022-12-23T08:36:22.830Z,15.95
2022-12-23T08:38:51.900Z,17.73
2022-12-23T08:41:22.614Z,19.17
2022-12-23T08:43:49.817Z,17.23
2022-12-23T08:46:16.514Z,16.45
2022-12-23T08:48:48.955Z,17.67
2022-12-23T08:51:19.551Z,17.42
2022-12-23T08:53:47.469Z,15.88
2022-12-23T08:56:16.566Z,16.17
2022-12-23T08:58:45.322Z,19.52
2022-12-23T09:01:17.886Z,16.42
2022-12-23T09:03:45.250Z,15.20
2022-12-23T09:06:14.367Z,15.82
2022-12-23T09:08:43.209Z,20.95
2022-12-23T09:11:10.740Z,15.65
2022-12-23T09:13:37.402Z,15.20
2022-12-23T09:16:05.108Z,14.27
2022-12-23T09:18:31.810Z,15.23
2022-12-23T09:20:59.012Z,14.73
2022-12-23T09:23:25.737Z,14.75
2022-12-23T09:25:54.171Z,16.35
2022-12-23T09:28:21.179Z,14.75
2022-12-23T09:30:47.830Z,13.77
2022-12-23T09:33:14.564Z,13.88
2022-12-23T09:35:41.279Z,14.95
2022-12-23T09:38:07.957Z,13.73
2022-12-23T09:40:37.393Z,13.30
2022-12-23T09:43:18.184Z,14.40
2022-12-23T09:45:58.289Z,13.75
2022-12-23T09:48:29.170Z,15.65
2022-12-23T09:50:55.946Z,13.02
2022-12-23T09:53:27.051Z,14.25
2022-12-23T09:56:00.013Z,13.43
2022-12-23T09:58:31.773Z,13.95
2022-12-23T10:01:13.382Z,14.70
2022-12-23T10:04:06.617Z,14.65
2022-12-23T10:06:36.096Z,12.55
2022-12-23T10:09:05.017Z,12.77
2022-12-23T10:11:36.222Z,14.38
2022-12-23T10:14:14.208Z,12.95
2022-12-23T10:16:44.522Z,13.15
2022-12-23T10:19:18.016Z,13.05
2022-12-23T10:24:20.784Z,11.68
2022-12-23T10:26:53.089Z,11.25
2022-12-23T10:29:22.712Z,12.52
2022-12-23T10:32:05.195Z,11.57
2022-12-23T10:34:41.288Z,12.10
2022-12-23T10:37:15.394Z,11.32
2022-12-23T10:39:50.704Z,11.48
2022-12-23T10:42:27.075Z,11.10
2022-12-23T10:45:14.138Z,11.07
2022-12-23T10:47:52.163Z,10.50
2022-12-23T10:50:44.112Z,10.25
2022-12-23T10:53:12.390Z,9.70
2022-12-23T10:55:39.368Z,9.82
2022-12-23T10:58:12.970Z,9.98
2022-12-23T11:00:45.241Z,10.38
2022-12-23T11:03:18.629Z,10.57
2022-12-23T11:08:12.640Z,9.85
2022-12-23T11:10:39.813Z,10.38
2022-12-23T11:13:06.623Z,10.10
2022-12-23T11:15:35.401Z,10.35
2022-12-23T11:18:06.549Z,9.52
2022-12-23T11:20:34.198Z,10.10
2022-12-23T11:23:02.520Z,9.40
2022-12-23T11:25:35.599Z,10.05
2022-12-23T11:28:08.019Z,10.38
2022-12-23T11:30:50.284Z,9.98
2022-12-23T11:33:26.696Z,10.07
2022-12-23T11:36:06.030Z,10.95
2022-12-23T11:38:35.002Z,9.63
2022-12-23T11:41:02.995Z,10.82
2022-12-23T11:43:32.269Z,11.30
2022-12-23T11:46:24.266Z,10.45
2022-12-23T11:49:05.526Z,11.57
2022-12-23T11:51:32.423Z,11.23
2022-12-23T11:54:02.809Z,12.43
2022-12-23T11:56:35.853Z,14.40
2022-12-23T11:59:07.545Z,11.25
2022-12-23T12:01:36.068Z,13.50
2022-12-23T12:04:08.970Z,13.00
2022-12-23T12:06:42.279Z,12.05
2022-12-23T12:09:12.929Z,12.43
2022-12-23T12:11:46.309Z,13.45
2022-12-23T12:14:21.485Z,12.75
2022-12-23T12:16:56.675Z,12.55
2022-12-23T12:19:30.277Z,11.50
2022-12-23T12:22:02.218Z,11.75
2022-12-23T12:24:35.254Z,11.63
2022-12-23T12:27:05.573Z,12.23
2022-12-23T12:29:39.239Z,12.02
2022-12-23T12:32:14.438Z,11.02
2022-12-23T12:34:51.878Z,12.43
2022-12-23T12:37:26.831Z,10.77
2022-12-23T12:39:56.269Z,10.27
2022-12-23T12:42:29.300Z,10.23
2022-12-23T12:45:05.133Z,11.13
2022-12-23T12:47:53.216Z,12.00
2022-12-23T12:50:24.340Z,11.23
2022-12-23T12:52:53.868Z,11.02
2022-12-23T12:55:26.000Z,12.77
2022-12-23T12:57:52.621Z,12.18
2022-12-23T13:00:21.875Z,12.60
2022-12-23T13:03:11.373Z,12.18
2022-12-23T13:05:53.914Z,12.13
2022-12-23T13:08:39.680Z,12.32
2022-12-23T13:11:12.436Z,12.70
2022-12-23T13:13:51.176Z,13.13
2022-12-23T13:16:26.388Z,13.27
2022-12-23T13:18:59.390Z,13.20
2022-12-23T13:21:35.277Z,13.73
2022-12-23T13:24:13.051Z,12.63
2022-12-23T13:26:57.789Z,12.02
2022-12-23T13:29:44.972Z,11.70
2022-12-23T13:32:24.678Z,11.48
2022-12-23T13:35:00.284Z,11.32
2022-12-23T13:37:36.477Z,11.30
2022-12-23T13:40:17.161Z,12.48
2022-12-23T13:42:52.378Z,12.45
2022-12-23T13:45:20.145Z,11.32
2022-12-23T13:48:01.256Z,12.50
2022-12-23T13:50:36.430Z,10.52
2022-12-23T13:53:16.364Z,11.50
2022-12-23T13:55:58.869Z,12.13
2022-12-23T13:58:28.139Z,12.38
2022-12-23T14:01:18.775Z,15.98
2022-12-23T14:03:48.959Z,15.98
2022-12-23T14:06:21.736Z,16.08
2022-12-23T14:08:51.326Z,15.52
2022-12-23T14:11:21.802Z,14.70
2022-12-23T14:13:54.629Z,19.33
2022-12-23T14:16:48.652Z,16.05
2022-12-23T14:22:12.534Z,13.48
2022-12-23T14:25:27.698Z,12.90
2022-12-23T14:28:02.431Z,13.68
2022-12-23T14:30:34.515Z,12.95
2022-12-23T14:33:03.652Z,14.13
2022-12-23T14:36:05.888Z,13.70
2022-12-23T14:38:32.914Z,13.48
2022-12-23T14:41:35.752Z,14.15
2022-12-23T14:44:02.416Z,12.68
2022-12-23T14:46:56.844Z,13.18
2022-12-23T14:49:47.337Z,12.90
2022-12-23T14:52:53.564Z,13.50
2022-12-23T14:55:51.334Z,12.82
2022-12-23T14:58:50.450Z,11.90
2022-12-23T15:01:19.981Z,14.13
2022-12-23T15:03:48.695Z,12.23
2022-12-23T15:06:19.139Z,13.13
2022-12-23T15:08:48.784Z,12.60
2022-12-23T15:11:21.694Z,13.38
2022-12-23T15:13:52.756Z,14.32
2022-12-23T15:16:19.786Z,16.02
2022-12-23T15:18:54.297Z,13.90
2022-12-23T15:21:26.568Z,13.20
2022-12-23T15:23:53.206Z,13.40
2022-12-23T15:26:21.599Z,14.98
2022-12-23T15:28:49.722Z,13.43
2022-12-23T15:31:25.661Z,17.60
2022-12-23T15:34:02.923Z,15.70
2022-12-23T15:36:33.672Z,14.13
2022-12-23T15:39:01.565Z,13.18
2022-12-23T15:41:28.876Z,13.45
2022-12-23T15:44:00.112Z,15.23
2022-12-23T15:46:30.458Z,16.52
2022-12-23T15:48:57.924Z,19.05
2022-12-23T15:51:58.200Z,20.58
2022-12-23T15:54:23.623Z,20.45
2022-12-23T15:56:53.146Z,18.50
2022-12-23T15:59:28.378Z,17.33
2022-12-23T16:01:55.506Z,16.08
2022-12-23T16:04:26.991Z,16.25
2022-12-23T16:06:55.290Z,16.23
2022-12-23T16:09:34.371Z,16.20
2022-12-23T16:12:03.612Z,14.48
2022-12-23T16:14:37.751Z,13.63
2022-12-23T16:17:21.394Z,12.98
2022-12-23T16:22:23.922Z,11.25
2022-12-23T16:24:53.495Z,13.23
2022-12-23T16:27:27.376Z,12.73
2022-12-23T16:29:56.675Z,11.98
2022-12-23T16:32:23.317Z,12.27
2022-12-23T16:34:51.258Z,16.83
2022-12-23T16:37:17.938Z,14.95
2022-12-23T16:39:44.687Z,15.32
2022-12-23T16:42:11.344Z,15.98
2022-12-23T16:44:37.987Z,15.57
2022-12-23T16:47:15.369Z,16.10
2022-12-23T16:49:42.328Z,15.15
2022-12-23T16:52:13.148Z,15.18
2022-12-23T16:54:39.847Z,16.83
2022-12-23T16:57:06.544Z,15.93
2022-12-23T16:59:33.298Z,14.88
2022-12-23T17:02:03.747Z,15.68
2022-12-23T17:04:32.088Z,15.13
2022-12-23T17:06:58.837Z,16.27
2022-12-23T17:09:25.536Z,15.23
2022-12-23T17:11:53.538Z,15.63
2022-12-23T17:14:21.990Z,14.30
2022-12-23T17:16:49.214Z,14.90
2022-12-23T17:19:20.500Z,19.17
2022-12-23T17:21:55.779Z,18.48
2022-12-23T17:24:24.301Z,15.88
2022-12-23T17:26:51.851Z,15.90
2022-12-23T17:29:18.989Z,15.90
2022-12-23T17:31:47.284Z,15.75
2022-12-23T17:34:16.421Z,13.90
2022-12-23T17:36:49.461Z,15.93
2022-12-23T17:39:18.453Z,16.25
2022-12-23T17:41:45.131Z,16.75
2022-12-23T17:44:14.523Z,16.10
2022-12-23T17:46:41.318Z,16.98
2022-12-23T17:49:08.399Z,17.88
2022-12-23T17:51:35.091Z,18.48
2022-12-23T17:54:01.654Z,16.77
2022-12-23T17:56:30.836Z,17.92
2022-12-23T17:58:57.519Z,17.33
2022-12-23T18:01:25.864Z,18.38
2022-12-23T18:03:53.153Z,18.98
2022-12-23T18:06:22.700Z,18.45
2022-12-23T18:08:49.619Z,17.77
2022-12-23T18:11:20.373Z,19.33
2022-12-23T18:13:50.024Z,19.05
2022-12-23T18:16:16.626Z,20.52
2022-12-23T18:18:46.727Z,19.25
2022-12-23T18:21:20.204Z,20.13
2022-12-23T18:23:46.982Z,20.20
2022-12-23T18:26:14.723Z,25.05
2022-12-23T18:28:41.439Z,25.42
2022-12-23T18:31:15.194Z,27.55
2022-12-23T18:33:41.909Z,27.58
2022-12-23T18:36:18.318Z,27.60
2022-12-23T18:38:44.960Z,29.13
2022-12-23T18:41:12.305Z,29.73
2022-12-23T18:43:39.223Z,28.33
2022-12-23T18:46:06.165Z,25.35
2022-12-23T18:48:34.296Z,26.50
2022-12-23T18:51:01.041Z,25.50
2022-12-23T18:53:27.676Z,24.17
2022-12-23T18:55:55.156Z,25.48
2022-12-23T18:58:22.807Z,24.70
2022-12-23T19:00:50.722Z,24.20
2022-12-23T19:03:21.892Z,22.60
2022-12-23T19:05:50.791Z,22.42
2022-12-23T19:08:23.605Z,22.90
2022-12-23T19:10:53.521Z,23.30
2022-12-23T19:13:20.301Z,26.25
2022-12-23T19:15:46.975Z,23.90
2022-12-23T19:18:15.516Z,25.90
2022-12-23T19:20:42.465Z,24.85
2022-12-23T19:23:11.003Z,27.88
2022-12-23T19:25:40.648Z,27.02
2022-12-23T19:28:07.314Z,28.83
2022-12-23T19:30:33.952Z,27.58
2022-12-23T19:33:00.613Z,26.63
2022-12-23T19:35:27.216Z,24.10
2022-12-23T19:37:53.868Z,23.85
2022-12-23T19:40:21.909Z,23.95
2022-12-23T19:42:48.525Z,24.25
2022-12-23T19:45:15.243Z,24.63
2022-12-23T19:47:41.865Z,24.65
2022-12-23T19:50:10.565Z,23.98
2022-12-23T19:52:37.160Z,23.90
2022-12-23T19:55:04.459Z,22.45
2022-12-23T19:57:32.412Z,22.63
2022-12-23T19:59:59.136Z,21.85
2022-12-23T20:02:25.737Z,22.08
2022-12-23T20:04:52.354Z,22.45
2022-12-23T20:07:18.926Z,23.70
2022-12-23T20:09:45.558Z,24.65
2022-12-23T20:12:12.126Z,24.50
2022-12-23T20:14:40.571Z,25.23
2022-12-23T20:17:07.171Z,24.77
2022-12-23T20:19:33.816Z,22.85
2022-12-23T20:22:00.489Z,23.27
2022-12-23T20:24:27.259Z,24.02
2022-12-23T20:26:53.912Z,22.30
2022-12-23T20:29:20.447Z,24.25
2022-12-23T20:31:48.637Z,24.90
2022-12-23T20:34:16.998Z,25.25
2022-12-23T20:36:43.745Z,24.27
2022-12-23T20:39:10.465Z,27.05
2022-12-23T20:41:37.171Z,27.90
2022-12-23T20:46:52.451Z,26.98
2022-12-23T20:49:19.166Z,27.70
2022-12-23T20:51:45.838Z,28.58
2022-12-23T20:54:12.416Z,27.13
2022-12-23T20:56:39.084Z,27.50
2022-12-23T20:59:05.784Z,26.73
2022-12-23T21:01:34.583Z,27.80
2022-12-23T21:04:05.584Z,29.27
2022-12-23T21:06:33.772Z,28.42
2022-12-23T21:09:01.603Z,28.67
2022-12-23T21:11:29.099Z,27.80
2022-12-23T21:13:57.812Z,28.58
2022-12-23T21:16:28.456Z,26.13
2022-12-23T21:18:55.291Z,25.67
2022-12-23T21:21:24.823Z,26.23
2022-12-23T21:23:52.193Z,26.77
2022-12-23T21:26:20.334Z,26.92
2022-12-23T21:28:48.391Z,27.60
2022-12-23T21:31:16.455Z,26.27
2022-12-23T21:33:44.790Z,25.83
2022-12-23T21:36:19.445Z,25.17
2022-12-23T21:38:49.338Z,27.63
2022-12-23T21:41:19.413Z,26.35
2022-12-23T21:43:46.390Z,27.52
2022-12-23T21:46:14.903Z,25.60
2022-12-23T21:48:42.393Z,24.73
2022-12-23T21:51:13.526Z,24.45
2022-12-23T21:53:41.130Z,25.27
2022-12-23T21:56:11.120Z,23.58
2022-12-23T21:58:37.934Z,23.48
2022-12-23T22:01:07.234Z,24.30
2022-12-23T22:03:34.094Z,21.25
2022-12-23T22:06:09.786Z,21.55
2022-12-23T22:08:36.984Z,21.02
2022-12-23T22:11:06.330Z,20.20
2022-12-23T22:13:34.484Z,19.25
2022-12-23T22:16:01.968Z,19.63
2022-12-23T22:18:28.607Z,17.65
2022-12-23T22:20:55.473Z,19.67
2022-12-23T22:23:22.040Z,17.92
2022-12-23T22:25:52.569Z,18.25
2022-12-23T22:28:19.401Z,17.52
2022-12-23T22:30:47.418Z,18.10
2022-12-23T22:33:14.643Z,17.63
2022-12-23T22:35:41.385Z,17.58
2022-12-23T22:38:08.995Z,17.48
2022-12-23T22:40:35.712Z,17.00
2022-12-23T22:43:02.400Z,17.20
2022-12-23T22:45:29.008Z,16.67
2022-12-23T22:47:56.997Z,17.23
2022-12-23T22:50:23.544Z,16.58
2022-12-23T22:52:50.236Z,16.42
2022-12-23T22:55:16.927Z,15.45
2022-12-23T22:57:43.961Z,16.55
2022-12-23T23:00:12.828Z,15.85
2022-12-23T23:02:39.606Z,15.30
2022-12-23T23:05:12.830Z,14.98
2022-12-23T23:07:40.073Z,14.35
2022-12-23T23:10:08.107Z,15.57
2022-12-23T23:12:34.653Z,14.38
2022-12-23T23:15:01.269Z,13.77
2022-12-23T23:17:28.791Z,13.93
2022-12-23T23:19:55.596Z,13.20
2022-12-23T23:22:24.709Z,13.07
2022-12-23T23:24:52.200Z,12.38
2022-12-23T23:27:19.218Z,12.57
2022-12-23T23:29:45.990Z,13.18
2022-12-23T23:32:12.651Z,12.55
2022-12-23T23:34:39.338Z,13.15
2022-12-23T23:37:06.094Z,13.43
2022-12-23T23:39:34.097Z,12.77
2022-12-23T23:42:00.685Z,11.38
2022-12-23T23:44:27.372Z,14.15
2022-12-23T23:46:54.093Z,11.88
2022-12-23T23:49:21.579Z,11.10
2022-12-23T23:51:48.194Z,10.43
2022-12-23T23:54:14.850Z,10.32
2022-12-23T23:56:42.912Z,10.13
2022-12-23T23:59:09.546Z,9.82
